createdAt,value
2023-01-10T00:00:26.534Z,100259.53
2023-01-10T00:03:12.286Z,100265.66
2023-01-10T00:05:57.394Z,100269.78
2023-01-10T00:08:42.881Z,100270.81
2023-01-10T00:11:27.822Z,100277.75
2023-01-10T00:14:12.818Z,100285.41
2023-01-10T00:16:58.057Z,100291.44
2023-01-10T00:19:43.387Z,100289.19
2023-01-10T00:22:28.872Z,100293.13
2023-01-10T00:25:14.240Z,100310.47
2023-01-10T00:27:59.878Z,100307.84
2023-01-10T00:30:50.467Z,100316.66
2023-01-10T00:33:36.870Z,100326.41
2023-01-10T00:36:22.148Z,100324.75
2023-01-10T00:39:07.008Z,100334.13
2023-01-10T00:41:52.382Z,100341.06
2023-01-10T00:44:37.817Z,100352.44
2023-01-10T00:47:23.152Z,100354.38
2023-01-10T00:50:09.114Z,100364.03
2023-01-10T00:52:54.430Z,100365.66
2023-01-10T00:55:39.387Z,100370.13
2023-01-10T00:58:24.826Z,100382.38
2023-01-10T01:01:09.734Z,100381.78
2023-01-10T01:03:55.152Z,100385.78
2023-01-10T01:06:40.464Z,100396.31
2023-01-10T01:09:25.897Z,100410.28
2023-01-10T01:12:10.749Z,100417.66
2023-01-10T01:14:55.936Z,100421.16
2023-01-10T01:17:41.215Z,100429.56
2023-01-10T01:20:26.052Z,100432.75
2023-01-10T01:23:11.558Z,100446.41
2023-01-10T01:25:57.335Z,100452.28
2023-01-10T01:28:42.253Z,100461.72
2023-01-10T01:31:27.572Z,100460.88
2023-01-10T01:34:12.942Z,100467.88
2023-01-10T01:36:58.036Z,100470.38
2023-01-10T01:39:43.373Z,100481.31
2023-01-10T01:42:34.642Z,100488.97
2023-01-10T01:45:22.804Z,100493.78
2023-01-10T01:48:13.221Z,100493.31
2023-01-10T01:51:16.594Z,100507.25
2023-01-10T01:54:09.547Z,100511.38
2023-01-10T01:57:01.223Z,100508.97
2023-01-10T01:59:49.650Z,100518.41
2023-01-10T02:02:41.422Z,100536.63
2023-01-10T02:05:32.190Z,100538.16
2023-01-10T02:08:17.596Z,100539.88
2023-01-10T02:11:09.439Z,100543.25
2023-01-10T02:13:54.881Z,100546.16
2023-01-10T02:16:40.499Z,100552.91
2023-01-10T02:19:49.536Z,100556.19
2023-01-10T02:23:13.613Z,100564.81
2023-01-10T02:25:59.002Z,100562.13
2023-01-10T02:29:06.419Z,100558.56
2023-01-10T02:32:07.710Z,100567.44
2023-01-10T02:35:32.121Z,100565.28
2023-01-10T02:38:41.529Z,100568.72
2023-01-10T02:41:33.017Z,100574.72
2023-01-10T02:44:24.633Z,100574.81
2023-01-10T02:47:09.987Z,100567.91
2023-01-10T02:49:55.001Z,100567.97
2023-01-10T02:52:40.355Z,100568.28
2023-01-10T02:55:50.744Z,100578.22
2023-01-10T02:59:06.432Z,100576.59
2023-01-10T03:01:59.870Z,100583.47
2023-01-10T03:04:54.336Z,100582.81
2023-01-10T03:08:01.226Z,100582.63
2023-01-10T03:10:56.383Z,100575.66
2023-01-10T03:13:49.863Z,100578.22
2023-01-10T03:16:37.796Z,100582.53
2023-01-10T03:22:39.295Z,100574.91
2023-01-10T03:25:30.807Z,100581.94
2023-01-10T03:28:43.955Z,100599.72
2023-01-10T03:31:38.149Z,100608.25
2023-01-10T03:34:24.855Z,100611.78
2023-01-10T03:37:32.093Z,100617.78
2023-01-10T03:40:33.031Z,100631.50
2023-01-10T03:43:26.887Z,100640.81
2023-01-10T03:46:47.943Z,100643.63
2023-01-10T03:49:35.536Z,100644.56
2023-01-10T03:52:21.789Z,100658.88
2023-01-10T03:55:09.727Z,100665.97
2023-01-10T03:57:54.962Z,100669.25
2023-01-10T04:00:40.277Z,100680.09
2023-01-10T04:03:25.615Z,100674.91
2023-01-10T04:06:11.394Z,100675.72
2023-01-10T04:08:56.732Z,100675.34
2023-01-10T04:11:42.278Z,100675.25
2023-01-10T04:14:27.888Z,100678.53
2023-01-10T04:17:14.633Z,100680.47
2023-01-10T04:19:59.783Z,100683.72
2023-01-10T04:22:45.630Z,100687.09
2023-01-10T04:25:31.023Z,100692.88
2023-01-10T04:28:16.210Z,100702.38
2023-01-10T04:31:01.921Z,100705.75
2023-01-10T04:33:46.925Z,100704.00
2023-01-10T04:36:31.808Z,100710.88
2023-01-10T04:39:17.241Z,100702.16
2023-01-10T04:42:02.304Z,100708.19
2023-01-10T04:44:47.647Z,100709.13
2023-01-10T04:47:32.996Z,100707.31
2023-01-10T04:50:18.526Z,100713.94
2023-01-10T04:53:03.903Z,100707.00
2023-01-10T04:55:49.394Z,100718.16
2023-01-10T04:58:38.294Z,100713.66
2023-01-10T05:01:25.100Z,100722.03
2023-01-10T05:04:10.397Z,100725.31
2023-01-10T05:06:55.765Z,100736.44
2023-01-10T05:09:41.094Z,100743.25
2023-01-10T05:12:26.351Z,100744.13
2023-01-10T05:15:11.701Z,100750.06
2023-01-10T05:18:00.997Z,100753.38
2023-01-10T05:20:45.825Z,100750.00
2023-01-10T05:23:32.083Z,100761.75
2023-01-10T05:26:21.831Z,100766.88
2023-01-10T05:29:07.133Z,100772.13
2023-01-10T05:31:52.729Z,100780.06
2023-01-10T05:34:37.799Z,100773.88
2023-01-10T05:37:23.227Z,100782.38
2023-01-10T05:40:10.542Z,100791.72
2023-01-10T05:42:55.458Z,100783.84
2023-01-10T05:45:42.180Z,100783.00
2023-01-10T05:48:27.611Z,100789.75
2023-01-10T05:51:12.718Z,100786.59
2023-01-10T05:53:58.111Z,100795.19
2023-01-10T05:56:43.385Z,100814.91
2023-01-10T05:59:28.934Z,100815.81
2023-01-10T06:02:14.301Z,100821.53
2023-01-10T06:04:59.745Z,100812.34
2023-01-10T06:07:44.423Z,100821.78
2023-01-10T06:10:29.484Z,100825.06
2023-01-10T06:13:15.171Z,100831.06
2023-01-10T06:16:00.389Z,100841.53
2023-01-10T06:18:45.789Z,100832.28
2023-01-10T06:21:30.870Z,100838.22
2023-01-10T06:24:16.152Z,100849.47
2023-01-10T06:27:01.499Z,100840.03
2023-01-10T06:29:46.953Z,100847.66
2023-01-10T06:32:32.241Z,100854.59
2023-01-10T06:35:17.682Z,100863.16
2023-01-10T06:38:03.455Z,100866.44
2023-01-10T06:40:48.522Z,100859.34
2023-01-10T06:43:33.995Z,100856.59
2023-01-10T06:46:20.171Z,100867.84
2023-01-10T06:49:05.578Z,100883.09
2023-01-10T06:51:50.789Z,100887.34
2023-01-10T06:54:36.112Z,100890.00
2023-01-10T06:57:20.956Z,100890.84
2023-01-10T07:00:09.594Z,100882.44
2023-01-10T07:02:58.744Z,100890.84
2023-01-10T07:05:44.225Z,100899.63
2023-01-10T07:08:29.624Z,100899.50
2023-01-10T07:11:16.013Z,100890.03
2023-01-10T07:14:01.970Z,100908.84
2023-01-10T07:16:46.905Z,100906.44
2023-01-10T07:19:32.383Z,100913.09
2023-01-10T07:22:17.940Z,100925.06
2023-01-10T07:25:03.861Z,100932.84
2023-01-10T07:27:49.429Z,100940.53
2023-01-10T07:30:34.777Z,100938.75
2023-01-10T07:33:20.101Z,100936.13
2023-01-10T07:36:06.378Z,100930.41
2023-01-10T07:38:51.567Z,100919.94
2023-01-10T07:41:36.674Z,100940.22
2023-01-10T07:44:21.564Z,100967.56
2023-01-10T07:47:06.807Z,100967.56
2023-01-10T07:49:52.425Z,100958.34
2023-01-10T07:52:37.809Z,100943.59
2023-01-10T07:55:23.217Z,100953.94
2023-01-10T07:58:08.530Z,100957.56
2023-01-10T08:00:58.488Z,100976.34
2023-01-10T08:03:43.841Z,100969.66
2023-01-10T08:06:28.938Z,100979.78
2023-01-10T08:09:14.334Z,100977.41
2023-01-10T08:11:59.748Z,100992.94
2023-01-10T08:14:45.061Z,100990.59
2023-01-10T08:17:35.795Z,100989.84
2023-01-10T08:20:21.293Z,100989.91
2023-01-10T08:23:06.560Z,101001.91
2023-01-10T08:25:52.048Z,100999.34
2023-01-10T08:28:37.336Z,101001.97
2023-01-10T08:31:22.534Z,101012.31
2023-01-10T08:34:07.854Z,101014.88
2023-01-10T08:36:54.457Z,101013.25
2023-01-10T08:39:39.755Z,101002.31
2023-01-10T08:42:24.750Z,101004.06
2023-01-10T08:45:10.697Z,100996.47
2023-01-10T08:47:56.475Z,101002.63
2023-01-10T08:50:41.635Z,101002.72
2023-01-10T08:53:26.467Z,101002.84
2023-01-10T08:56:11.904Z,101004.09
2023-01-10T08:58:57.370Z,101009.41
2023-01-10T09:01:42.848Z,101010.44
2023-01-10T09:04:28.191Z,101011.41
2023-01-10T09:07:13.648Z,101008.91
2023-01-10T09:09:58.911Z,101010.53
2023-01-10T09:12:44.348Z,101011.47
2023-01-10T09:15:34.688Z,101008.09
2023-01-10T09:18:21.391Z,101008.00
2023-01-10T09:21:06.807Z,100998.66
2023-01-10T09:23:52.307Z,101007.34
2023-01-10T09:26:37.556Z,100992.16
2023-01-10T09:29:22.452Z,101005.78
2023-01-10T09:32:07.918Z,101011.91
2023-01-10T09:34:53.459Z,101017.13
2023-01-10T09:37:38.807Z,101024.81
2023-01-10T09:40:27.305Z,101020.50
2023-01-10T09:43:15.314Z,101026.66
2023-01-10T09:46:42.272Z,101042.03
2023-01-10T09:49:45.798Z,101034.22
2023-01-10T09:52:34.589Z,101041.03
2023-01-10T09:55:32.292Z,101032.59
2023-01-10T09:58:19.263Z,101043.66
2023-01-10T10:01:11.166Z,101043.03
2023-01-10T10:04:07.412Z,101049.00
2023-01-10T10:06:53.273Z,101058.41
2023-01-10T10:09:38.355Z,101057.78
2023-01-10T10:12:43.550Z,101060.53
2023-01-10T10:16:00.604Z,101059.00
2023-01-10T10:19:04.396Z,101052.19
2023-01-10T10:22:07.211Z,101061.69
2023-01-10T10:25:18.449Z,101053.16
2023-01-10T10:28:21.804Z,101039.50
2023-01-10T10:31:19.514Z,101046.44
2023-01-10T10:34:33.538Z,101031.88
2023-01-10T10:37:21.376Z,101023.22
2023-01-10T10:40:17.384Z,101027.69
2023-01-10T10:43:22.912Z,101031.13
2023-01-10T10:46:13.019Z,101032.00
2023-01-10T10:49:04.535Z,101023.41
2023-01-10T10:51:53.502Z,101031.38
2023-01-10T10:54:38.462Z,101028.94
2023-01-10T10:57:26.942Z,101032.72
2023-01-10T11:00:19.112Z,101037.31
2023-01-10T11:03:26.560Z,101030.34
2023-01-10T11:06:14.778Z,101021.88
2023-01-10T11:09:01.729Z,101020.22
2023-01-10T11:11:49.118Z,101016.31
2023-01-10T11:14:50.591Z,101001.19
2023-01-10T11:17:35.400Z,101001.34
2023-01-10T11:20:20.821Z,100990.16
2023-01-10T11:23:07.237Z,101013.34
2023-01-10T11:25:52.296Z,100997.06
2023-01-10T11:28:38.112Z,100988.72
2023-01-10T11:31:28.624Z,100991.31
2023-01-10T11:34:33.076Z,100982.88
2023-01-10T11:37:20.443Z,100974.50
2023-01-10T11:40:15.220Z,100964.69
2023-01-10T11:43:03.026Z,100978.25
2023-01-10T11:45:54.818Z,100968.06
2023-01-10T11:49:08.588Z,100963.16
2023-01-10T11:51:59.421Z,100951.06
2023-01-10T11:54:45.145Z,100938.09
2023-01-10T11:57:32.198Z,100927.75
2023-01-10T12:00:17.921Z,100928.38
2023-01-10T12:03:34.115Z,100938.75
2023-01-10T12:06:19.344Z,100954.41
2023-01-10T12:09:04.798Z,100955.16
2023-01-10T12:12:01.601Z,100952.47
2023-01-10T12:14:47.617Z,100957.53
2023-01-10T12:17:35.978Z,100974.72
2023-01-10T12:20:21.790Z,100954.09
2023-01-10T12:23:12.019Z,100961.06
2023-01-10T12:26:11.193Z,100945.41
2023-01-10T12:28:59.724Z,100941.31
2023-01-10T12:31:45.297Z,100948.38
2023-01-10T12:34:42.082Z,100953.66
2023-01-10T12:37:40.365Z,100951.94
2023-01-10T12:40:41.905Z,100958.13
2023-01-10T12:43:41.520Z,100952.56
2023-01-10T12:47:09.185Z,100929.16
2023-01-10T12:50:04.108Z,100923.44
2023-01-10T12:53:10.805Z,100918.88
2023-01-10T12:55:59.021Z,100918.22
2023-01-10T12:58:49.606Z,100911.41
2023-01-10T13:01:37.490Z,100913.84
2023-01-10T13:04:25.343Z,100912.22
2023-01-10T13:07:13.166Z,100907.13
2023-01-10T13:10:01.012Z,100903.72
2023-01-10T13:13:13.391Z,100879.66
2023-01-10T13:16:16.777Z,100878.00
2023-01-10T13:19:01.955Z,100872.84
2023-01-10T13:21:47.479Z,100872.00
2023-01-10T13:24:32.796Z,100871.91
2023-01-10T13:27:20.159Z,100870.28
2023-01-10T13:30:05.769Z,100874.59
2023-01-10T13:32:59.285Z,100862.56
2023-01-10T13:35:44.988Z,100853.06
2023-01-10T13:38:36.516Z,100854.69
2023-01-10T13:41:22.413Z,100857.34
2023-01-10T13:44:15.023Z,100851.16
2023-01-10T13:47:00.249Z,100846.19
2023-01-10T13:49:45.462Z,100847.00
2023-01-10T13:52:32.599Z,100848.66
2023-01-10T13:55:40.566Z,100852.97
2023-01-10T13:58:25.389Z,100824.69
2023-01-10T14:01:36.524Z,100810.03
2023-01-10T14:04:47.813Z,100826.44
2023-01-10T14:07:42.714Z,100816.16
2023-01-10T14:10:31.267Z,100814.41
2023-01-10T14:13:22.970Z,100819.63
2023-01-10T14:16:34.166Z,100826.34
2023-01-10T14:19:31.221Z,100820.41
2023-01-10T14:22:29.719Z,100830.69
2023-01-10T14:25:20.695Z,100817.00
2023-01-10T14:28:20.604Z,100801.56
2023-01-10T14:31:24.031Z,100812.47
2023-01-10T14:34:16.622Z,100809.06
2023-01-10T14:37:16.568Z,100811.63
2023-01-10T14:40:06.305Z,100820.13
2023-01-10T14:42:52.927Z,100818.31
2023-01-10T14:46:05.236Z,100808.13
2023-01-10T14:48:53.041Z,100817.53
2023-01-10T14:51:38.129Z,100807.06
2023-01-10T14:54:22.997Z,100797.72
2023-01-10T14:57:19.542Z,100800.22
2023-01-10T15:00:17.601Z,100802.78
2023-01-10T15:03:04.261Z,100787.47
2023-01-10T15:05:52.313Z,100782.88
2023-01-10T15:08:37.389Z,100776.09
2023-01-10T15:11:24.127Z,100776.81
2023-01-10T15:14:10.199Z,100782.78
2023-01-10T15:16:58.840Z,100781.91
2023-01-10T15:19:44.694Z,100766.50
2023-01-10T15:22:33.271Z,100769.75
2023-01-10T15:25:18.421Z,100762.13
2023-01-10T15:28:18.322Z,100757.84
2023-01-10T15:31:05.401Z,100742.34
2023-01-10T15:33:50.601Z,100744.03
2023-01-10T15:36:36.200Z,100748.28
2023-01-10T15:39:28.784Z,100745.72
2023-01-10T15:42:14.544Z,100731.09
2023-01-10T15:45:37.276Z,100729.38
2023-01-10T15:48:28.700Z,100727.59
2023-01-10T15:51:35.042Z,100711.38
2023-01-10T15:54:20.179Z,100708.06
2023-01-10T15:57:19.000Z,100705.13
2023-01-10T16:00:04.651Z,100704.28
2023-01-10T16:02:50.453Z,100707.72
2023-01-10T16:05:35.912Z,100686.41
2023-01-10T16:08:24.394Z,100691.44
2023-01-10T16:11:19.697Z,100680.34
2023-01-10T16:14:04.798Z,100669.25
2023-01-10T16:16:50.188Z,100660.59
2023-01-10T16:19:35.438Z,100665.75
2023-01-10T16:22:20.440Z,100641.09
2023-01-10T16:25:05.951Z,100634.16
2023-01-10T16:27:51.522Z,100631.53
2023-01-10T16:30:36.815Z,100624.66
2023-01-10T16:33:23.890Z,100629.75
2023-01-10T16:36:17.862Z,100621.22
2023-01-10T16:39:07.320Z,100616.94
2023-01-10T16:41:52.588Z,100621.94
2023-01-10T16:44:37.894Z,100615.03
2023-01-10T16:47:22.901Z,100618.47
2023-01-10T16:50:09.809Z,100616.69
2023-01-10T16:52:54.979Z,100612.38
2023-01-10T16:55:43.747Z,100604.72
2023-01-10T16:58:28.869Z,100608.06
2023-01-10T17:01:17.009Z,100593.53
2023-01-10T17:04:02.201Z,100596.81
2023-01-10T17:06:47.594Z,100596.03
2023-01-10T17:09:32.727Z,100596.03
2023-01-10T17:12:18.702Z,100588.44
2023-01-10T17:15:06.620Z,100580.59
2023-01-10T17:17:51.780Z,100596.81
2023-01-10T17:20:36.798Z,100583.09
2023-01-10T17:23:22.473Z,100593.34
2023-01-10T17:26:08.055Z,100588.28
2023-01-10T17:28:53.270Z,100586.56
2023-01-10T17:31:38.258Z,100587.56
2023-01-10T17:34:23.473Z,100579.63
2023-01-10T17:37:08.851Z,100593.31
2023-01-10T17:39:54.167Z,100580.50
2023-01-10T17:42:39.606Z,100580.50
2023-01-10T17:45:24.968Z,100583.16
2023-01-10T17:48:11.307Z,100568.50
2023-01-10T17:50:59.519Z,100575.38
2023-01-10T17:53:44.857Z,100558.44
2023-01-10T17:56:30.137Z,100553.28
2023-01-10T17:59:15.537Z,100545.59
2023-01-10T18:02:01.021Z,100540.53
2023-01-10T18:04:46.234Z,100544.81
2023-01-10T18:07:31.547Z,100536.50
2023-01-10T18:10:16.884Z,100518.47
2023-01-10T18:13:03.439Z,100527.03
2023-01-10T18:15:49.774Z,100517.69
2023-01-10T18:18:34.937Z,100524.72
2023-01-10T18:21:20.247Z,100515.38
2023-01-10T18:24:05.963Z,100509.31
2023-01-10T18:26:51.041Z,100499.19
2023-01-10T18:29:36.337Z,100506.84
2023-01-10T18:32:23.657Z,100496.63
2023-01-10T18:35:09.047Z,100489.00
2023-01-10T18:37:54.138Z,100501.66
2023-01-10T18:40:40.536Z,100520.34
2023-01-10T18:43:25.532Z,100511.72
2023-01-10T18:46:13.881Z,100533.88
2023-01-10T18:48:58.938Z,100531.97
2023-01-10T18:51:44.286Z,100553.72
2023-01-10T18:54:29.704Z,100555.34
2023-01-10T18:57:14.986Z,100574.66
2023-01-10T19:00:00.371Z,100574.53
2023-01-10T19:02:46.429Z,100578.66
2023-01-10T19:05:31.756Z,100586.44
2023-01-10T19:08:17.588Z,100598.88
2023-01-10T19:11:13.404Z,100595.50
2023-01-10T19:14:00.203Z,100585.94
2023-01-10T19:16:45.477Z,100578.03
2023-01-10T19:19:31.113Z,100581.28
2023-01-10T19:22:16.767Z,100570.94
2023-01-10T19:25:02.168Z,100571.66
2023-01-10T19:27:47.556Z,100582.66
2023-01-10T19:30:32.952Z,100569.78
2023-01-10T19:33:18.618Z,100565.28
2023-01-10T19:36:05.912Z,100579.78
2023-01-10T19:38:58.365Z,100561.00
2023-01-10T19:41:43.555Z,100571.19
2023-01-10T19:44:28.915Z,100563.38
2023-01-10T19:47:14.416Z,100553.00
2023-01-10T19:49:59.737Z,100557.28
2023-01-10T19:52:45.365Z,100557.78
2023-01-10T19:55:30.755Z,100555.97
2023-01-10T19:58:16.171Z,100547.34
2023-01-10T20:01:19.123Z,100538.72
2023-01-10T20:04:04.555Z,100551.63
2023-01-10T20:06:49.792Z,100539.69
2023-01-10T20:09:34.792Z,100535.47
2023-01-10T20:12:20.106Z,100523.63
2023-01-10T20:15:06.000Z,100528.84
2023-01-10T20:17:51.332Z,100520.28
2023-01-10T20:20:36.623Z,100524.81
2023-01-10T20:23:22.273Z,100500.16
2023-01-10T20:26:15.231Z,100501.06
2023-01-10T20:29:02.355Z,100485.66
2023-01-10T20:31:49.046Z,100479.00
2023-01-10T20:34:34.071Z,100473.94
2023-01-10T20:37:19.474Z,100467.25
2023-01-10T20:40:04.980Z,100480.16
2023-01-10T20:42:50.314Z,100459.78
2023-01-10T20:45:35.671Z,100456.50
2023-01-10T20:48:21.447Z,100437.69
2023-01-10T20:51:07.622Z,100448.22
2023-01-10T20:53:53.001Z,100426.94
2023-01-10T20:56:38.551Z,100432.06
2023-01-10T20:59:25.900Z,100422.72
2023-01-10T21:02:12.014Z,100428.72
2023-01-10T21:04:57.007Z,100414.38
2023-01-10T21:07:41.742Z,100403.44
2023-01-10T21:10:26.995Z,100396.75
2023-01-10T21:13:12.994Z,100387.44
2023-01-10T21:15:58.257Z,100378.94
2023-01-10T21:18:43.708Z,100372.25
2023-01-10T21:21:28.522Z,100369.59
2023-01-10T21:24:13.653Z,100356.97
2023-01-10T21:26:58.933Z,100347.50
2023-01-10T21:29:44.282Z,100338.25
2023-01-10T21:32:29.389Z,100329.78
2023-01-10T21:35:14.837Z,100325.47
2023-01-10T21:38:00.142Z,100323.69
2023-01-10T21:40:45.094Z,100334.06
2023-01-10T21:43:31.703Z,100333.19
2023-01-10T21:46:17.076Z,100336.53
2023-01-10T21:49:03.214Z,100339.81
2023-01-10T21:51:48.665Z,100345.50
2023-01-10T21:54:33.715Z,100348.06
2023-01-10T21:57:19.048Z,100360.88
2023-01-10T22:00:04.883Z,100360.88
2023-01-10T22:02:49.890Z,100355.09
2023-01-10T22:05:35.203Z,100331.25
2023-01-10T22:08:19.984Z,100352.81
2023-01-10T22:11:04.930Z,100335.88
2023-01-10T22:13:50.670Z,100329.19
2023-01-10T22:16:35.760Z,100315.47
2023-01-10T22:19:21.218Z,100316.25
2023-01-10T22:22:07.038Z,100312.13
2023-01-10T22:24:52.047Z,100321.69
2023-01-10T22:27:37.260Z,100315.13
2023-01-10T22:30:22.148Z,100295.47
2023-01-10T22:33:07.518Z,100291.03
2023-01-10T22:35:52.325Z,100298.03
2023-01-10T22:38:37.271Z,100287.94
2023-01-10T22:41:23.890Z,100279.41
2023-01-10T22:44:17.794Z,100272.78
2023-01-10T22:47:02.940Z,100269.53
2023-01-10T22:49:48.340Z,100261.88
2023-01-10T22:52:33.135Z,100254.19
2023-01-10T22:55:18.197Z,100257.00
2023-01-10T22:58:03.402Z,100261.72
2023-01-10T23:00:49.086Z,100256.63
2023-01-10T23:03:34.510Z,100251.56
2023-01-10T23:06:20.454Z,100243.91
2023-01-10T23:09:05.913Z,100226.81
2023-01-10T23:11:50.959Z,100230.03
2023-01-10T23:14:35.842Z,100223.19
2023-01-10T23:17:21.278Z,100233.56
2023-01-10T23:20:07.001Z,100225.97
2023-01-10T23:22:52.313Z,100225.97
2023-01-10T23:25:37.691Z,100213.97
2023-01-10T23:28:35.639Z,100212.25
2023-01-10T23:31:22.800Z,100211.41
2023-01-10T23:34:08.313Z,100222.66
2023-01-10T23:36:53.305Z,100208.13
2023-01-10T23:39:38.388Z,100219.19
2023-01-10T23:42:23.213Z,100225.13
2023-01-10T23:45:09.310Z,100215.44
2023-01-10T23:47:54.505Z,100246.06
2023-01-10T23:50:39.354Z,100240.84
2023-01-10T23:53:25.110Z,100249.41
2023-01-10T23:56:13.185Z,100264.84
2023-01-10T23:58:58.499Z,100252.94
